Time;durP1;ratioP1;P1;durP2;ratioP2;P2;SDS_P1;SDS_P2;PMS_P1;PMS_P2;Temp;Humidity;BMP_temperature;BMP_pressure;BME280_temperature;BME280_humidity;BME280_pressure;Samples;Min_cycle;Max_cycle;Signal;HPM_P1;HPM_P2
2021/09/04 00:00:28;;;;;;;11.70;8.68;;;22.30;95.70;;;;;;4972398;28;20035;-81
2021/09/04 00:02:53;;;;;;;12.38;8.30;;;22.30;95.50;;;;;;4972105;28;20066;-85
2021/09/04 00:05:19;;;;;;;16.92;9.07;;;22.30;95.50;;;;;;4971211;28;20499;-81
2021/09/04 00:07:45;;;;;;;13.85;8.80;;;22.30;95.50;;;;;;4972689;28;20074;-84
2021/09/04 00:10:10;;;;;;;13.55;8.75;;;22.30;95.50;;;;;;4972561;28;20547;-88
2021/09/04 00:12:36;;;;;;;12.32;8.77;;;22.30;95.50;;;;;;4972229;28;20022;-86
2021/09/04 00:15:04;;;;;;;9.85;8.68;;;22.30;95.40;;;;;;4972414;28;20034;-79
2021/09/04 00:17:30;;;;;;;11.68;7.97;;;22.30;95.50;;;;;;4972800;28;20487;-87
2021/09/04 00:19:55;;;;;;;10.40;8.82;;;22.30;95.40;;;;;;4973155;28;20494;-84
2021/09/04 00:22:21;;;;;;;9.35;8.15;;;22.30;95.40;;;;;;4972282;28;20114;-83
2021/09/04 00:24:47;;;;;;;12.45;8.82;;;22.30;95.40;;;;;;4972906;28;20497;-85
2021/09/04 00:27:12;;;;;;;13.23;9.43;;;22.30;95.40;;;;;;4972829;28;20027;-82
2021/09/04 00:29:38;;;;;;;10.55;8.15;;;22.30;95.40;;;;;;4972276;28;20491;-82
2021/09/04 00:32:05;;;;;;;12.95;9.00;;;22.30;95.40;;;;;;4971888;28;20035;-77
2021/09/04 00:34:30;;;;;;;10.55;8.68;;;22.30;95.40;;;;;;4972347;28;20117;-84
2021/09/04 00:36:56;;;;;;;12.10;7.95;;;22.30;95.30;;;;;;4972677;28;20090;-79
2021/09/04 00:39:21;;;;;;;10.90;8.68;;;22.30;95.30;;;;;;4971899;28;20104;-79
2021/09/04 00:41:47;;;;;;;11.63;8.05;;;22.30;95.30;;;;;;4954353;28;20039;-76
2021/09/04 00:44:15;;;;;;;10.73;8.00;;;22.30;95.40;;;;;;4971875;28;20034;-82
2021/09/04 00:46:41;;;;;;;12.23;8.82;;;22.30;95.40;;;;;;4970671;28;20082;-78
2021/09/04 00:49:07;;;;;;;9.90;7.53;;;22.30;95.50;;;;;;4971290;28;20035;-81
2021/09/04 00:51:33;;;;;;;11.60;8.55;;;22.30;95.50;;;;;;4972385;28;20101;-79
2021/09/04 00:53:59;;;;;;;10.32;7.97;;;22.30;95.50;;;;;;4972193;28;20062;-82
2021/09/04 00:56:25;;;;;;;13.85;8.85;;;22.30;95.60;;;;;;4972450;28;20051;-85
2021/09/04 00:58:51;;;;;;;14.48;9.00;;;22.30;95.80;;;;;;4972664;28;20037;-78
2021/09/04 01:01:16;;;;;;;11.63;7.97;;;22.30;95.90;;;;;;4971939;28;20118;-86
2021/09/04 01:03:42;;;;;;;10.57;8.10;;;22.30;95.80;;;;;;4976025;28;20023;-82
2021/09/04 01:06:10;;;;;;;12.18;8.35;;;22.30;95.80;;;;;;4975440;28;20364;-87
2021/09/04 01:08:36;;;;;;;14.23;8.45;;;22.30;95.90;;;;;;4976082;28;20022;-85
2021/09/04 01:11:01;;;;;;;11.82;8.73;;;22.30;96.00;;;;;;4975869;28;20113;-82
2021/09/04 01:13:27;;;;;;;10.45;8.30;;;22.30;96.10;;;;;;4976955;28;20026;-83
2021/09/04 01:15:53;;;;;;;9.95;7.93;;;22.30;96.10;;;;;;4975712;28;20232;-87
2021/09/04 01:18:18;;;;;;;13.13;8.57;;;22.30;96.10;;;;;;4975252;28;20031;-82
2021/09/04 01:20:44;;;;;;;11.45;8.70;;;22.30;96.20;;;;;;4975917;28;20050;-81
2021/09/04 01:23:10;;;;;;;11.05;8.65;;;22.30;96.10;;;;;;4975815;28;20019;-87
2021/09/04 01:25:40;;;;;;;11.75;9.15;;;22.20;96.20;;;;;;4976381;28;20031;-89
2021/09/04 01:28:05;;;;;;;12.18;8.55;;;22.20;96.10;;;;;;4976080;28;20050;-87
2021/09/04 01:30:33;;;;;;;10.75;8.25;;;22.30;96.30;;;;;;4975901;28;20534;-80
2021/09/04 01:32:59;;;;;;;10.38;7.90;;;22.20;96.20;;;;;;4975791;28;20030;-87
2021/09/04 01:35:25;;;;;;;12.05;8.88;;;22.20;96.20;;;;;;4975379;28;20511;-87
2021/09/04 01:37:51;;;;;;;12.95;8.80;;;22.20;96.30;;;;;;4975827;28;20027;-86
2021/09/04 01:40:18;;;;;;;9.52;7.68;;;22.20;96.30;;;;;;4975314;28;20045;-86
2021/09/04 01:42:47;;;;;;;12.07;8.50;;;22.20;96.20;;;;;;4975308;28;20042;-85
2021/09/04 01:45:14;;;;;;;10.38;8.52;;;22.20;96.10;;;;;;4974526;28;20027;-84
2021/09/04 01:47:40;;;;;;;11.15;8.98;;;22.20;96.20;;;;;;4974631;28;20029;-86
2021/09/04 01:50:13;;;;;;;12.98;8.60;;;22.20;96.10;;;;;;4974805;28;20043;-86
2021/09/04 01:52:40;;;;;;;11.98;8.52;;;22.20;96.20;;;;;;4974978;28;20054;-85
2021/09/04 01:55:08;;;;;;;11.35;7.55;;;22.20;96.20;;;;;;4964283;28;20030;-85
2021/09/04 01:57:33;;;;;;;10.75;8.70;;;22.20;96.10;;;;;;4975370;28;20023;-86
2021/09/04 01:59:59;;;;;;;12.60;8.73;;;22.20;96.20;;;;;;4975224;28;20031;-86
2021/09/04 02:02:25;;;;;;;10.57;8.02;;;22.20;96.20;;;;;;4974238;28;20415;-86
2021/09/04 02:04:50;;;;;;;14.27;9.60;;;22.20;96.30;;;;;;4974819;28;20041;-87
2021/09/04 02:07:16;;;;;;;10.43;8.57;;;22.20;96.30;;;;;;4974961;28;20507;-87
2021/09/04 02:09:41;;;;;;;11.90;8.18;;;22.10;96.10;;;;;;4974830;28;20034;-86
2021/09/04 02:12:07;;;;;;;11.07;7.88;;;22.20;96.10;;;;;;4975038;28;20023;-85
2021/09/04 02:14:33;;;;;;;12.25;8.48;;;22.10;96.10;;;;;;4973962;28;20066;-86
2021/09/04 02:16:58;;;;;;;12.10;8.85;;;22.10;96.00;;;;;;4975104;28;20060;-86
2021/09/04 02:19:24;;;;;;;11.18;8.95;;;22.10;96.00;;;;;;4974730;28;20161;-86
2021/09/04 02:21:50;;;;;;;12.48;8.95;;;22.10;95.90;;;;;;4974511;28;20034;-84
2021/09/04 02:24:16;;;;;;;10.73;7.80;;;22.10;95.90;;;;;;4973650;28;20026;-83
2021/09/04 02:26:41;;;;;;;11.25;8.23;;;22.10;95.90;;;;;;4974293;28;20570;-83
2021/09/04 02:29:07;;;;;;;10.85;8.45;;;22.10;95.90;;;;;;4972964;28;20034;-82
2021/09/04 02:31:33;;;;;;;10.63;8.57;;;22.10;95.90;;;;;;4973825;28;20133;-83
2021/09/04 02:33:58;;;;;;;10.73;8.55;;;22.10;95.90;;;;;;4974706;28;20081;-83
2021/09/04 02:36:24;;;;;;;11.68;8.25;;;22.10;95.80;;;;;;4973922;28;20023;-83
2021/09/04 02:38:51;;;;;;;10.57;8.40;;;22.10;96.00;;;;;;4974364;28;20487;-87
2021/09/04 02:41:17;;;;;;;10.30;7.65;;;22.10;95.80;;;;;;4974478;28;20045;-90
2021/09/04 02:43:43;;;;;;;12.38;9.38;;;22.10;95.90;;;;;;4974524;28;20403;-78
2021/09/04 02:46:09;;;;;;;11.73;8.18;;;22.10;95.80;;;;;;4974070;28;20049;-80
2021/09/04 02:48:35;;;;;;;11.73;8.88;;;22.10;95.80;;;;;;4973715;28;20019;-84
2021/09/04 02:51:01;;;;;;;10.65;7.90;;;22.10;95.80;;;;;;4973942;28;20118;-73
2021/09/04 02:53:27;;;;;;;11.73;9.00;;;22.10;95.80;;;;;;4973884;28;20426;-84
2021/09/04 02:55:52;;;;;;;11.07;8.48;;;22.00;95.80;;;;;;4972950;28;20030;-82
2021/09/04 02:58:18;;;;;;;11.77;8.55;;;22.00;95.80;;;;;;4972787;28;20062;-85
2021/09/04 03:00:44;;;;;;;10.82;7.93;;;22.10;95.80;;;;;;4973919;28;20062;-79
2021/09/04 03:03:10;;;;;;;10.98;7.70;;;22.00;95.70;;;;;;4973211;28;20043;-82
2021/09/04 03:05:36;;;;;;;12.15;8.90;;;22.00;95.80;;;;;;4973860;28;20395;-82
2021/09/04 03:08:02;;;;;;;10.45;8.13;;;22.00;95.80;;;;;;4973420;28;20031;-77
2021/09/04 03:10:28;;;;;;;10.05;8.05;;;22.00;95.80;;;;;;4973609;28;20026;-78
2021/09/04 03:12:54;;;;;;;9.98;7.97;;;22.00;95.70;;;;;;4973655;28;20407;-81
2021/09/04 03:15:19;;;;;;;9.93;7.95;;;22.00;95.60;;;;;;4973332;28;20081;-83
2021/09/04 03:17:45;;;;;;;9.20;7.72;;;22.00;95.60;;;;;;4955927;28;20056;-83
2021/09/04 03:20:11;;;;;;;10.23;8.18;;;22.00;95.50;;;;;;4973167;28;20494;-81
2021/09/04 03:22:37;;;;;;;12.10;8.10;;;22.00;95.50;;;;;;4973474;28;20098;-83
2021/09/04 03:25:04;;;;;;;12.50;8.40;;;22.00;95.90;;;;;;4972102;28;20062;-81
2021/09/04 03:27:30;;;;;;;12.52;8.40;;;22.00;95.50;;;;;;4973010;28;20105;-83
2021/09/04 03:29:56;;;;;;;10.60;7.97;;;22.00;95.90;;;;;;4973119;28;20059;-84
2021/09/04 03:32:22;;;;;;;12.55;9.23;;;22.00;95.60;;;;;;4972446;28;20066;-83
2021/09/04 03:34:48;;;;;;;9.82;7.60;;;22.00;95.50;;;;;;4972835;28;20038;-84
2021/09/04 03:37:13;;;;;;;11.45;8.55;;;22.00;95.50;;;;;;4972954;28;20045;-82
2021/09/04 03:39:39;;;;;;;11.20;8.20;;;22.00;95.50;;;;;;4973384;28;20022;-84
2021/09/04 03:42:05;;;;;;;14.00;8.15;;;22.00;95.40;;;;;;4972577;28;20043;-86
2021/09/04 03:44:31;;;;;;;9.27;7.35;;;21.90;95.40;;;;;;4973310;28;20106;-74
2021/09/04 03:46:57;;;;;;;11.73;8.63;;;21.90;95.80;;;;;;4973366;28;20030;-85
2021/09/04 03:49:22;;;;;;;11.88;8.10;;;21.90;95.40;;;;;;4972359;28;20491;-83
2021/09/04 03:51:48;;;;;;;10.90;7.72;;;21.90;95.40;;;;;;4972430;28;20058;-85
2021/09/04 03:54:14;;;;;;;10.68;8.18;;;21.90;95.40;;;;;;4972720;28;20106;-82
2021/09/04 03:56:39;;;;;;;9.70;8.30;;;21.90;95.30;;;;;;4973135;28;20027;-84
2021/09/04 03:59:05;;;;;;;10.93;8.52;;;21.90;95.30;;;;;;4972360;28;20034;-85
2021/09/04 04:01:31;;;;;;;12.13;8.18;;;21.90;95.30;;;;;;4972125;28;20046;-74
2021/09/04 04:03:56;;;;;;;10.00;7.68;;;21.90;95.30;;;;;;4973089;28;20041;-85
2021/09/04 04:06:22;;;;;;;9.00;7.57;;;21.90;95.30;;;;;;4972341;28;20069;-84
2021/09/04 04:08:48;;;;;;;10.38;8.32;;;21.90;95.20;;;;;;4972485;28;20030;-82
2021/09/04 04:11:14;;;;;;;9.57;7.70;;;21.90;95.30;;;;;;4972477;28;20066;-84
2021/09/04 04:13:40;;;;;;;10.93;7.82;;;21.90;95.20;;;;;;4972475;28;20026;-85
2021/09/04 04:16:05;;;;;;;11.88;7.95;;;21.90;95.20;;;;;;4971956;28;20089;-85
2021/09/04 04:18:33;;;;;;;10.15;7.68;;;21.90;95.20;;;;;;4972296;28;20102;-83
2021/09/04 04:21:00;;;;;;;11.68;8.55;;;21.80;95.10;;;;;;4973119;28;20046;-88
2021/09/04 04:23:26;;;;;;;11.07;8.02;;;21.90;95.10;;;;;;4973055;28;20077;-86
2021/09/04 04:25:52;;;;;;;10.27;7.75;;;21.90;95.10;;;;;;4971861;28;20030;-84
2021/09/04 04:28:19;;;;;;;8.98;8.02;;;21.90;95.10;;;;;;4972022;28;20033;-85
2021/09/04 04:30:45;;;;;;;10.05;7.90;;;21.80;95.00;;;;;;4972336;28;20106;-83
2021/09/04 04:33:11;;;;;;;11.43;8.75;;;21.80;95.10;;;;;;4971809;28;20402;-84
2021/09/04 04:35:37;;;;;;;9.90;7.50;;;21.80;95.10;;;;;;4972341;28;20101;-87
2021/09/04 04:38:03;;;;;;;12.27;7.65;;;21.90;95.10;;;;;;4974624;28;20513;-83
2021/09/04 04:40:29;;;;;;;9.27;7.40;;;21.80;95.00;;;;;;4975765;28;20114;-82
2021/09/04 04:42:55;;;;;;;9.30;7.88;;;21.80;95.00;;;;;;4975935;28;20085;-84
2021/09/04 04:45:20;;;;;;;12.05;8.52;;;21.80;95.00;;;;;;4976212;28;20786;-83
2021/09/04 04:47:46;;;;;;;10.88;7.97;;;21.80;95.00;;;;;;4975939;28;20039;-84
2021/09/04 04:50:12;;;;;;;11.40;8.60;;;21.80;95.00;;;;;;4974117;28;20077;-85
2021/09/04 04:52:38;;;;;;;9.30;7.50;;;21.80;94.90;;;;;;4957883;28;20019;-82
2021/09/04 04:55:05;;;;;;;10.23;8.10;;;21.80;94.90;;;;;;4975316;28;20085;-82
2021/09/04 04:57:31;;;;;;;9.60;7.85;;;21.80;94.90;;;;;;4959589;28;20475;-79
2021/09/04 04:59:57;;;;;;;9.73;7.88;;;21.80;94.90;;;;;;4976470;28;20031;-86
2021/09/04 05:02:22;;;;;;;10.23;7.82;;;21.80;94.90;;;;;;4975956;28;20030;-85
2021/09/04 05:04:48;;;;;;;11.73;8.55;;;21.80;94.80;;;;;;4976110;28;20031;-85
2021/09/04 05:07:13;;;;;;;11.70;7.55;;;21.80;94.90;;;;;;4973852;28;20420;-86
2021/09/04 05:09:39;;;;;;;10.77;7.75;;;21.80;94.90;;;;;;4975572;28;20073;-89
2021/09/04 05:12:05;;;;;;;9.38;7.50;;;21.80;94.90;;;;;;4959356;28;20053;-90
2021/09/04 05:14:30;;;;;;;10.32;7.47;;;21.80;94.90;;;;;;4975667;28;20031;-78
2021/09/04 05:16:56;;;;;;;10.18;7.93;;;21.70;94.80;;;;;;4976342;28;20035;-89
2021/09/04 05:19:22;;;;;;;9.93;8.05;;;21.70;94.90;;;;;;4974468;28;20078;-88
2021/09/04 05:21:48;;;;;;;10.40;8.00;;;21.70;94.90;;;;;;4976006;28;20439;-83
2021/09/04 05:24:14;;;;;;;10.60;8.02;;;21.70;94.90;;;;;;4976019;28;20085;-87
2021/09/04 05:26:39;;;;;;;9.77;8.07;;;21.70;94.80;;;;;;4974938;28;20064;-87
2021/09/04 05:29:05;;;;;;;11.13;7.85;;;21.70;94.80;;;;;;4975185;28;20066;-80
2021/09/04 05:31:31;;;;;;;11.43;8.65;;;21.70;94.80;;;;;;4975773;28;20038;-74
2021/09/04 05:33:57;;;;;;;9.65;7.55;;;21.70;94.80;;;;;;4975186;28;20027;-83
2021/09/04 05:36:23;;;;;;;9.68;8.07;;;21.70;94.80;;;;;;4975253;28;20027;-80
2021/09/04 05:38:48;;;;;;;9.85;7.40;;;21.70;94.90;;;;;;4975672;28;20085;-78
2021/09/04 05:41:14;;;;;;;12.30;7.63;;;21.70;94.80;;;;;;4975359;28;20039;-81
2021/09/04 05:43:39;;;;;;;9.77;7.32;;;21.70;94.80;;;;;;4975473;28;20113;-85
2021/09/04 05:46:06;;;;;;;11.15;8.55;;;21.60;94.80;;;;;;4973134;28;20171;-87
2021/09/04 05:48:31;;;;;;;9.40;7.53;;;21.70;94.90;;;;;;4974235;28;20060;-85
2021/09/04 05:50:57;;;;;;;9.27;7.78;;;21.60;94.80;;;;;;4976229;28;20480;-88
2021/09/04 05:53:23;;;;;;;10.50;7.60;;;21.60;94.70;;;;;;4975147;28;20031;-88
2021/09/04 05:55:48;;;;;;;9.80;7.22;;;21.60;94.70;;;;;;4975250;28;20039;-88
2021/09/04 05:58:14;;;;;;;8.80;7.90;;;21.60;95.00;;;;;;4974181;28;20023;-83
2021/09/04 06:00:40;;;;;;;10.80;8.02;;;21.60;95.00;;;;;;4975248;28;20030;-86
2021/09/04 06:03:06;;;;;;;9.95;7.70;;;21.60;94.70;;;;;;4975027;28;20037;-79
2021/09/04 06:05:31;;;;;;;9.68;7.75;;;21.60;94.70;;;;;;4975082;28;20027;-83
2021/09/04 06:07:57;;;;;;;12.35;8.50;;;21.60;94.70;;;;;;4975750;28;20037;-85
2021/09/04 06:10:23;;;;;;;12.40;8.38;;;21.60;94.70;;;;;;4974603;28;20061;-83
2021/09/04 06:12:49;;;;;;;9.60;7.22;;;21.60;94.70;;;;;;4975266;28;20023;-85
2021/09/04 06:15:15;;;;;;;11.98;8.38;;;21.60;94.60;;;;;;4974948;28;20023;-82
2021/09/04 06:17:41;;;;;;;9.55;7.30;;;21.60;94.70;;;;;;4974596;28;20026;-84
2021/09/04 06:20:08;;;;;;;9.38;7.38;;;21.60;94.70;;;;;;4957593;28;20026;-85
2021/09/04 06:22:35;;;;;;;10.77;8.05;;;21.60;94.70;;;;;;4974691;28;20038;-83
2021/09/04 06:25:00;;;;;;;12.65;8.38;;;21.60;94.60;;;;;;4974862;28;20037;-84
2021/09/04 06:27:26;;;;;;;10.05;7.88;;;21.60;94.80;;;;;;4975444;28;20027;-83
2021/09/04 06:29:52;;;;;;;9.88;7.72;;;21.60;94.60;;;;;;4957407;28;20057;-80
2021/09/04 06:32:18;;;;;;;10.45;7.90;;;21.50;94.60;;;;;;4974717;28;20470;-87
2021/09/04 06:34:43;;;;;;;9.80;7.35;;;21.60;94.60;;;;;;4974441;28;20038;-83
2021/09/04 06:37:09;;;;;;;10.55;7.95;;;21.50;94.60;;;;;;4974704;28;20027;-85
2021/09/04 06:39:35;;;;;;;9.88;8.15;;;21.50;94.60;;;;;;4974689;28;20113;-84
2021/09/04 06:42:01;;;;;;;10.75;7.68;;;21.50;94.60;;;;;;4974529;28;20109;-72
2021/09/04 06:44:26;;;;;;;10.10;8.10;;;21.60;94.60;;;;;;4974810;28;20034;-78
2021/09/04 06:46:52;;;;;;;9.15;7.78;;;21.50;94.60;;;;;;4973823;28;20037;-77
2021/09/04 06:49:18;;;;;;;10.60;7.22;;;21.60;94.60;;;;;;4973292;28;20110;-85
2021/09/04 06:51:43;;;;;;;8.98;7.47;;;21.60;94.60;;;;;;4973972;28;20459;-85
2021/09/04 06:54:09;;;;;;;11.13;8.25;;;21.50;94.60;;;;;;4974193;28;20173;-85
2021/09/04 06:56:35;;;;;;;10.18;7.15;;;21.60;94.60;;;;;;4973726;28;20047;-81
2021/09/04 06:59:01;;;;;;;10.80;8.60;;;21.60;94.60;;;;;;4973663;28;20029;-79
2021/09/04 07:01:26;;;;;;;10.57;7.97;;;21.60;94.50;;;;;;4973707;28;20035;-83
2021/09/04 07:03:52;;;;;;;10.05;7.72;;;21.60;94.60;;;;;;4973357;28;20030;-82
2021/09/04 07:06:17;;;;;;;10.57;8.55;;;21.60;94.70;;;;;;4973071;28;20089;-81
2021/09/04 07:08:43;;;;;;;11.25;7.65;;;21.60;94.70;;;;;;4972302;28;20031;-83
2021/09/04 07:11:09;;;;;;;10.48;7.75;;;21.60;94.60;;;;;;4972755;28;20561;-84
2021/09/04 07:13:34;;;;;;;14.23;8.52;;;21.60;94.60;;;;;;4973489;28;20047;-83
2021/09/04 07:16:00;;;;;;;10.77;7.43;;;21.60;94.60;;;;;;4973745;28;20400;-83
2021/09/04 07:18:26;;;;;;;12.02;7.63;;;21.60;94.70;;;;;;4973229;28;20102;-83
2021/09/04 07:20:52;;;;;;;12.75;8.85;;;21.70;94.80;;;;;;4972014;28;20039;-81
2021/09/04 07:23:18;;;;;;;13.82;8.30;;;21.70;94.80;;;;;;4972564;28;20022;-81
2021/09/04 07:25:44;;;;;;;12.73;8.60;;;21.70;95.10;;;;;;4972638;28;20553;-82
2021/09/04 07:28:10;;;;;;;12.70;8.38;;;21.70;95.30;;;;;;4972747;28;20023;-80
2021/09/04 07:30:36;;;;;;;11.43;8.82;;;21.70;95.10;;;;;;4973671;28;20034;-82
2021/09/04 07:33:02;;;;;;;11.75;8.68;;;21.70;95.00;;;;;;4973604;28;20026;-81
2021/09/04 07:35:28;;;;;;;12.85;8.65;;;21.70;95.00;;;;;;4972821;28;20407;-87
2021/09/04 07:37:54;;;;;;;12.68;8.80;;;21.70;94.90;;;;;;4973482;28;20076;-79
2021/09/04 07:40:19;;;;;;;10.68;8.02;;;21.80;94.90;;;;;;4972538;28;20411;-84
2021/09/04 07:42:45;;;;;;;11.65;8.57;;;21.70;94.80;;;;;;4973005;28;20046;-84
2021/09/04 07:45:11;;;;;;;11.90;8.60;;;21.80;94.80;;;;;;4972702;28;20054;-85
2021/09/04 07:47:37;;;;;;;11.57;8.85;;;21.80;94.70;;;;;;4972384;28;20054;-83
2021/09/04 07:50:04;;;;;;;12.82;8.80;;;21.80;94.70;;;;;;4972700;28;20489;-82
2021/09/04 07:52:30;;;;;;;14.65;9.38;;;21.80;94.70;;;;;;4969135;28;20055;-83
2021/09/04 07:54:55;;;;;;;11.45;8.48;;;21.80;94.60;;;;;;4953059;28;20058;-84
2021/09/04 07:57:21;;;;;;;11.48;8.23;;;21.80;94.60;;;;;;4971227;28;20031;-79
2021/09/04 07:59:47;;;;;;;10.65;7.85;;;21.80;94.60;;;;;;4969180;28;20534;-86
2021/09/04 08:02:12;;;;;;;13.27;9.25;;;21.90;94.60;;;;;;4972819;28;20062;-87
2021/09/04 08:04:38;;;;;;;9.85;8.15;;;21.80;94.60;;;;;;4973344;28;20022;-80
2021/09/04 08:07:04;;;;;;;14.57;9.18;;;21.80;94.60;;;;;;4973011;28;20026;-86
2021/09/04 08:09:29;;;;;;;10.77;8.45;;;21.90;94.60;;;;;;4969291;28;20077;-87
2021/09/04 08:11:55;;;;;;;12.02;8.25;;;21.90;94.50;;;;;;4972939;28;20078;-85
2021/09/04 08:14:20;;;;;;;15.95;9.38;;;21.90;94.50;;;;;;4972914;28;20031;-86
2021/09/04 08:16:46;;;;;;;12.65;9.27;;;21.90;94.40;;;;;;4973365;28;20066;-88
2021/09/04 08:19:12;;;;;;;13.90;9.75;;;21.90;94.40;;;;;;4973153;28;20035;-89
2021/09/04 08:21:37;;;;;;;16.08;10.43;;;21.90;94.40;;;;;;4971386;28;20443;-83
2021/09/04 08:24:03;;;;;;;13.77;10.70;;;21.90;94.40;;;;;;4972184;28;20035;-81
2021/09/04 08:26:29;;;;;;;13.35;10.10;;;21.90;94.30;;;;;;4972302;28;20031;-78
2021/09/04 08:28:55;;;;;;;13.85;10.55;;;21.90;94.30;;;;;;4972194;28;20054;-81
2021/09/04 08:31:21;;;;;;;14.00;11.27;;;21.90;94.30;;;;;;4960482;28;20027;-76
2021/09/04 08:33:47;;;;;;;17.45;11.82;;;22.00;94.40;;;;;;4957450;28;20043;-74
2021/09/04 08:36:12;;;;;;;13.45;11.40;;;22.00;94.30;;;;;;4963262;28;20035;-78
2021/09/04 08:38:38;;;;;;;18.52;12.18;;;22.00;94.30;;;;;;4961921;28;20046;-77
2021/09/04 08:41:05;;;;;;;15.27;13.35;;;22.00;94.30;;;;;;4959305;28;20089;-75
2021/09/04 08:43:30;;;;;;;20.73;15.20;;;22.00;94.30;;;;;;4957668;28;20118;-74
2021/09/04 08:45:56;;;;;;;23.42;15.50;;;22.00;94.20;;;;;;4953324;29;20461;-76
2021/09/04 08:48:23;;;;;;;20.55;14.32;;;22.00;94.20;;;;;;4952971;29;20032;-77
2021/09/04 08:50:51;;;;;;;21.52;15.52;;;22.00;94.40;;;;;;4958875;28;20085;-77
2021/09/04 08:53:21;;;;;;;23.98;18.17;;;22.00;94.60;;;;;;4970925;28;20368;-82
2021/09/04 08:55:47;;;;;;;23.95;18.95;;;22.00;94.50;;;;;;4972086;28;20058;-78
2021/09/04 08:58:13;;;;;;;22.20;16.67;;;22.00;94.50;;;;;;4970150;28;20402;-82
2021/09/04 09:00:41;;;;;;;24.92;17.40;;;22.00;94.60;;;;;;4972464;28;20113;-78
2021/09/04 09:03:28;;;;;;;23.83;18.05;;;22.00;94.50;;;;;;4971830;28;20082;-82
2021/09/04 09:05:55;;;;;;;23.13;17.35;;;22.00;94.40;;;;;;4972241;28;20042;-80
2021/09/04 09:08:27;;;;;;;26.33;18.55;;;22.10;94.40;;;;;;4965665;28;20036;-78
2021/09/04 09:10:59;;;;;;;26.75;18.40;;;22.10;94.30;;;;;;4959552;28;20059;-81
2021/09/04 09:13:25;;;;;;;28.98;18.77;;;22.10;94.30;;;;;;4957442;28;20390;-79
2021/09/04 09:15:55;;;;;;;24.02;19.02;;;22.00;94.30;;;;;;4972194;28;20424;-73
2021/09/04 09:35:52;;;;;;;;;;;22.10;94.10;;;;;;5149188;27;20438;-82
2021/09/04 09:38:28;;;;;;;28.85;20.02;;;22.20;94.40;;;;;;5130004;27;20362;-84
2021/09/04 09:40:55;;;;;;;28.95;19.40;;;22.20;94.30;;;;;;5130310;28;20506;-80
2021/09/04 09:43:32;;;;;;;27.10;19.63;;;22.20;94.00;;;;;;5129616;28;20487;-83
2021/09/04 09:46:01;;;;;;;25.40;18.90;;;22.20;94.10;;;;;;5130126;28;20057;-82
2021/09/04 09:48:29;;;;;;;31.00;20.40;;;22.20;94.20;;;;;;5130059;28;20068;-83
2021/09/04 09:50:58;;;;;;;27.48;19.92;;;22.20;94.40;;;;;;5128669;27;20016;-84
2021/09/04 09:53:24;;;;;;;28.42;21.30;;;22.20;94.30;;;;;;5129904;28;20382;-80
2021/09/04 09:55:53;;;;;;;38.85;22.25;;;22.30;94.10;;;;;;5129626;28;20031;-82
2021/09/04 09:58:20;;;;;;;28.95;20.52;;;22.30;94.10;;;;;;5129543;28;20020;-88
2021/09/04 10:00:48;;;;;;;24.50;18.90;;;22.30;94.10;;;;;;5129627;28;20039;-85
2021/09/04 10:03:14;;;;;;;28.35;19.42;;;22.30;94.20;;;;;;5129509;28;20127;-81
2021/09/04 10:05:40;;;;;;;29.10;21.05;;;22.30;93.90;;;;;;5129200;27;20038;-86
2021/09/04 10:08:06;;;;;;;36.60;22.92;;;22.40;93.80;;;;;;5129475;28;20483;-80
2021/09/04 10:10:38;;;;;;;35.92;23.55;;;22.40;93.60;;;;;;5128376;28;20030;-78
2021/09/04 10:13:05;;;;;;;32.35;22.05;;;22.40;93.50;;;;;;5128819;28;20478;-86
2021/09/04 10:15:34;;;;;;;30.70;22.65;;;22.40;93.60;;;;;;5128179;28;20031;-77
2021/09/04 10:18:03;;;;;;;33.15;21.73;;;22.40;93.60;;;;;;5129414;27;20016;-80
2021/09/04 10:20:30;;;;;;;26.60;20.02;;;22.40;93.60;;;;;;5129356;28;20030;-84
2021/09/04 10:23:20;;;;;;;28.02;19.70;;;22.40;93.60;;;;;;5129255;27;20102;-81
2021/09/04 10:25:47;;;;;;;30.23;19.85;;;22.50;93.50;;;;;;5119906;28;20082;-87
2021/09/04 10:28:12;;;;;;;27.48;19.25;;;22.50;93.50;;;;;;5129018;27;20030;-85
2021/09/04 10:30:39;;;;;;;29.35;20.08;;;22.50;93.50;;;;;;5128688;28;20019;-86
2021/09/04 10:33:05;;;;;;;30.65;19.48;;;22.50;93.50;;;;;;5128805;28;20481;-84
2021/09/04 10:35:53;;;;;;;29.70;19.83;;;22.50;93.50;;;;;;5121666;28;20027;-84
2021/09/04 10:38:18;;;;;;;27.33;18.92;;;22.50;93.50;;;;;;5114009;28;20023;-84
2021/09/04 10:41:11;;;;;;;26.02;20.30;;;22.50;93.40;;;;;;5114980;28;20065;-80
2021/09/04 10:43:42;;;;;;;28.95;19.48;;;22.50;93.30;;;;;;5111715;28;20124;-81
2021/09/04 10:46:15;;;;;;;24.50;18.70;;;22.50;93.30;;;;;;5114852;28;20031;-82
2021/09/04 10:48:41;;;;;;;23.55;16.83;;;22.60;93.20;;;;;;5114999;28;20428;-82
2021/09/04 10:51:09;;;;;;;26.65;18.98;;;22.60;93.20;;;;;;5114692;28;20499;-82
2021/09/04 10:53:53;;;;;;;23.98;18.25;;;22.60;93.10;;;;;;5114681;28;20094;-85
2021/09/04 10:56:30;;;;;;;24.42;17.70;;;22.70;93.10;;;;;;5114434;28;20503;-87
2021/09/04 10:58:55;;;;;;;24.33;17.58;;;22.70;93.00;;;;;;5114714;28;20027;-85
2021/09/04 11:01:48;;;;;;;27.80;18.10;;;22.70;93.00;;;;;;5114637;28;20016;-87
2021/09/04 11:04:14;;;;;;;24.73;17.65;;;22.70;92.90;;;;;;5114467;28;20111;-86
2021/09/04 11:06:47;;;;;;;25.52;17.92;;;22.70;92.80;;;;;;5114562;28;20105;-82
2021/09/04 11:09:13;;;;;;;24.45;17.30;;;22.70;92.80;;;;;;5114469;28;20028;-87
2021/09/04 11:11:39;;;;;;;21.17;16.58;;;22.80;92.70;;;;;;5114397;28;20012;-82
2021/09/04 11:14:17;;;;;;;23.33;16.45;;;22.80;92.70;;;;;;5114373;28;20107;-86
2021/09/04 11:16:45;;;;;;;22.48;16.60;;;22.80;92.60;;;;;;5114343;28;20030;-85
2021/09/04 11:19:17;;;;;;;20.55;16.30;;;22.80;92.60;;;;;;5114369;28;20490;-86
2021/09/04 11:21:45;;;;;;;23.00;16.73;;;22.90;92.60;;;;;;5114378;28;20027;-80
2021/09/04 11:24:12;;;;;;;21.52;16.30;;;22.90;92.50;;;;;;5114189;28;20110;-86
2021/09/04 11:27:01;;;;;;;21.98;16.90;;;22.90;92.50;;;;;;5114058;28;20035;-82
2021/09/04 11:29:27;;;;;;;26.67;17.27;;;22.90;92.40;;;;;;5114094;28;20427;-84
2021/09/04 11:32:02;;;;;;;22.63;17.02;;;22.90;92.40;;;;;;5114024;28;20398;-86
2021/09/04 11:34:34;;;;;;;21.77;16.90;;;23.00;92.40;;;;;;5113895;28;20040;-78
2021/09/04 11:37:16;;;;;;;22.27;16.42;;;23.00;92.30;;;;;;5114223;28;20153;-85
2021/09/04 11:39:41;;;;;;;20.83;17.05;;;23.00;92.30;;;;;;5113836;28;20442;-85
2021/09/04 11:42:13;;;;;;;20.50;17.15;;;23.00;92.30;;;;;;5113838;28;20058;-77
2021/09/04 11:44:45;;;;;;;22.48;17.30;;;23.00;92.20;;;;;;5113514;28;20027;-86
2021/09/04 11:47:14;;;;;;;20.55;16.92;;;23.10;92.20;;;;;;5112755;28;20028;-85
2021/09/04 11:49:57;;;;;;;21.45;16.55;;;23.10;92.10;;;;;;5113716;28;20121;-84
2021/09/04 11:52:43;;;;;;;22.13;17.15;;;23.10;92.10;;;;;;5113625;28;20114;-79
2021/09/04 11:55:17;;;;;;;20.80;16.70;;;23.10;92.00;;;;;;5113051;28;20518;-81
2021/09/04 11:57:45;;;;;;;22.23;16.45;;;23.20;91.70;;;;;;5113687;28;20506;-83
2021/09/04 12:00:20;;;;;;;23.90;18.73;;;23.20;91.80;;;;;;5112293;28;20038;-82
2021/09/04 12:02:48;;;;;;;26.05;20.52;;;23.20;92.00;;;;;;5112702;28;20023;-80
2021/09/04 12:05:15;;;;;;;39.28;22.55;;;23.30;91.80;;;;;;5113065;28;20032;-79
2021/09/04 12:07:42;;;;;;;29.80;19.98;;;23.30;91.80;;;;;;5113066;28;20047;-78
2021/09/04 12:10:10;;;;;;;53.55;24.50;;;23.40;91.70;;;;;;5113273;28;20058;-84
2021/09/04 12:12:37;;;;;;;49.85;22.88;;;23.40;91.80;;;;;;5113196;28;20508;-86
2021/09/04 12:15:04;;;;;;;56.42;25.70;;;;;;;;;;5113600;28;20023;-85
2021/09/04 12:17:31;;;;;;;48.08;24.95;;;;;;;;;;5112835;28;20034;-80
2021/09/04 12:20:08;;;;;;;56.97;23.85;;;;;;;;;;5112672;28;20443;-80
2021/09/04 12:22:34;;;;;;;47.83;23.30;;;;;;;;;;5110939;28;20494;-81
2021/09/04 12:25:00;;;;;;;56.83;22.63;;;;;;;;;;5112292;28;20094;-85
2021/09/04 12:27:40;;;;;;;52.67;22.52;;;;;;;;;;5113347;28;20019;-84
2021/09/04 12:30:07;;;;;;;50.55;23.10;;;;;;;;;;5113394;28;20035;-85
2021/09/04 12:32:34;;;;;;;51.85;23.35;;;;;;;;;;5112917;28;20023;-87
2021/09/04 12:35:00;;;;;;;42.03;21.58;;;;;;;;;;5112618;28;20510;-85
2021/09/04 12:37:27;;;;;;;46.67;23.38;;;;;;;;;;5112797;28;20367;-86
2021/09/04 12:40:04;;;;;;;49.10;22.35;;;;;;;;;;5112770;28;20153;-83
2021/09/04 12:42:30;;;;;;;35.85;20.95;;;;;;;;;;5112816;28;20028;-83
2021/09/04 12:45:04;;;;;;;42.13;22.10;;;;;;;;;;5112660;28;20080;-83
2021/09/04 12:47:40;;;;;;;37.08;20.73;;;;;;;;;;5112655;28;20076;-87
2021/09/04 12:50:06;;;;;;;41.08;22.13;;;;;;;;;;5112856;28;20054;-82
2021/09/04 12:52:32;;;;;;;37.33;20.98;;;;;;;;;;5112474;28;20471;-83
2021/09/04 12:54:59;;;;;;;34.00;20.33;;;;;;;;;;5112378;28;20020;-84
2021/09/04 12:57:26;;;;;;;42.40;20.08;;;;;;;;;;5111852;28;20131;-84